sensor_id;sensor_type;location;lat;lon;timestamp;P1;durP1;ratioP1;P2;durP2;ratioP2
15858;SDS011;8029;52.202;7.308;2023-05-23T00:01:19;2.70;;;2.50;;
15858;SDS011;8029;52.202;7.308;2023-05-23T00:03:49;3.05;;;2.70;;
15858;SDS011;8029;52.202;7.308;2023-05-23T00:06:20;2.47;;;2.28;;
15858;SDS011;8029;52.202;7.308;2023-05-23T00:08:47;3.72;;;2.20;;
15858;SDS011;8029;52.202;7.308;2023-05-23T00:11:13;3.08;;;2.78;;
15858;SDS011;8029;52.202;7.308;2023-05-23T00:13:40;2.20;;;2.00;;
15858;SDS011;8029;52.202;7.308;2023-05-23T00:16:06;3.03;;;2.22;;
15858;SDS011;8029;52.202;7.308;2023-05-23T00:18:34;2.53;;;2.10;;
15858;SDS011;8029;52.202;7.308;2023-05-23T00:21:00;2.30;;;2.10;;
15858;SDS011;8029;52.202;7.308;2023-05-23T00:23:26;2.97;;;2.67;;
15858;SDS011;8029;52.202;7.308;2023-05-23T00:25:53;4.82;;;2.33;;
15858;SDS011;8029;52.202;7.308;2023-05-23T00:28:20;3.35;;;2.75;;
15858;SDS011;8029;52.202;7.308;2023-05-23T00:30:47;3.55;;;2.75;;
15858;SDS011;8029;52.202;7.308;2023-05-23T00:33:13;2.92;;;2.63;;
15858;SDS011;8029;52.202;7.308;2023-05-23T00:35:40;3.95;;;3.03;;
15858;SDS011;8029;52.202;7.308;2023-05-23T00:38:09;4.13;;;3.10;;
15858;SDS011;8029;52.202;7.308;2023-05-23T00:40:35;2.80;;;2.60;;
15858;SDS011;8029;52.202;7.308;2023-05-23T00:43:04;3.95;;;3.53;;
15858;SDS011;8029;52.202;7.308;2023-05-23T00:45:33;3.15;;;2.60;;
15858;SDS011;8029;52.202;7.308;2023-05-23T00:48:02;4.03;;;3.08;;
15858;SDS011;8029;52.202;7.308;2023-05-23T00:50:28;5.18;;;2.85;;
15858;SDS011;8029;52.202;7.308;2023-05-23T00:52:54;3.60;;;3.25;;
15858;SDS011;8029;52.202;7.308;2023-05-23T00:55:22;3.40;;;3.10;;
15858;SDS011;8029;52.202;7.308;2023-05-23T00:57:51;3.05;;;2.75;;
15858;SDS011;8029;52.202;7.308;2023-05-23T01:00:24;4.88;;;4.13;;
15858;SDS011;8029;52.202;7.308;2023-05-23T01:02:50;5.18;;;4.20;;
15858;SDS011;8029;52.202;7.308;2023-05-23T01:05:17;4.97;;;3.78;;
15858;SDS011;8029;52.202;7.308;2023-05-23T01:07:47;4.32;;;3.92;;
15858;SDS011;8029;52.202;7.308;2023-05-23T01:10:14;5.75;;;4.90;;
15858;SDS011;8029;52.202;7.308;2023-05-23T01:15:57;5.75;;;4.53;;
15858;SDS011;8029;52.202;7.308;2023-05-23T01:18:37;18.73;;;4.30;;
15858;SDS011;8029;52.202;7.308;2023-05-23T01:21:07;6.45;;;5.05;;
15858;SDS011;8029;52.202;7.308;2023-05-23T01:26:17;17.85;;;4.93;;
15858;SDS011;8029;52.202;7.308;2023-05-23T01:28:50;7.95;;;6.20;;
15858;SDS011;8029;52.202;7.308;2023-05-23T01:31:19;8.13;;;6.00;;
15858;SDS011;8029;52.202;7.308;2023-05-23T01:33:47;6.38;;;5.45;;
15858;SDS011;8029;52.202;7.308;2023-05-23T01:36:14;7.30;;;6.47;;
15858;SDS011;8029;52.202;7.308;2023-05-23T01:38:40;7.82;;;6.25;;
15858;SDS011;8029;52.202;7.308;2023-05-23T01:41:07;8.35;;;6.18;;
15858;SDS011;8029;52.202;7.308;2023-05-23T01:43:33;8.30;;;6.10;;
15858;SDS011;8029;52.202;7.308;2023-05-23T01:45:59;8.93;;;6.18;;
15858;SDS011;8029;52.202;7.308;2023-05-23T01:48:25;7.45;;;6.07;;
15858;SDS011;8029;52.202;7.308;2023-05-23T01:50:52;8.00;;;5.95;;
15858;SDS011;8029;52.202;7.308;2023-05-23T01:53:22;6.88;;;6.18;;
15858;SDS011;8029;52.202;7.308;2023-05-23T01:55:48;6.18;;;5.57;;
15858;SDS011;8029;52.202;7.308;2023-05-23T01:58:15;6.97;;;5.40;;
15858;SDS011;8029;52.202;7.308;2023-05-23T02:00:41;6.88;;;5.57;;
15858;SDS011;8029;52.202;7.308;2023-05-23T02:03:07;6.28;;;4.82;;
15858;SDS011;8029;52.202;7.308;2023-05-23T02:05:33;10.23;;;6.07;;
15858;SDS011;8029;52.202;7.308;2023-05-23T02:07:59;5.22;;;4.43;;
15858;SDS011;8029;52.202;7.308;2023-05-23T02:10:25;4.68;;;4.15;;
15858;SDS011;8029;52.202;7.308;2023-05-23T02:12:51;6.32;;;4.30;;
15858;SDS011;8029;52.202;7.308;2023-05-23T02:15:17;3.80;;;3.45;;
15858;SDS011;8029;52.202;7.308;2023-05-23T02:17:46;6.53;;;5.15;;
15858;SDS011;8029;52.202;7.308;2023-05-23T02:20:12;4.05;;;3.58;;
15858;SDS011;8029;52.202;7.308;2023-05-23T02:22:38;3.30;;;3.00;;
15858;SDS011;8029;52.202;7.308;2023-05-23T02:25:04;8.55;;;5.45;;
15858;SDS011;8029;52.202;7.308;2023-05-23T02:27:31;4.03;;;3.63;;
15858;SDS011;8029;52.202;7.308;2023-05-23T02:29:59;5.80;;;4.30;;
15858;SDS011;8029;52.202;7.308;2023-05-23T02:32:25;4.35;;;3.78;;
15858;SDS011;8029;52.202;7.308;2023-05-23T02:34:51;4.18;;;2.90;;
15858;SDS011;8029;52.202;7.308;2023-05-23T02:37:18;4.25;;;3.83;;
15858;SDS011;8029;52.202;7.308;2023-05-23T02:39:44;3.30;;;3.00;;
15858;SDS011;8029;52.202;7.308;2023-05-23T02:42:10;3.97;;;3.58;;
15858;SDS011;8029;52.202;7.308;2023-05-23T02:44:36;3.90;;;3.00;;
15858;SDS011;8029;52.202;7.308;2023-05-23T02:47:02;3.05;;;2.75;;
15858;SDS011;8029;52.202;7.308;2023-05-23T02:49:28;2.80;;;2.45;;
15858;SDS011;8029;52.202;7.308;2023-05-23T02:51:54;3.65;;;3.35;;
15858;SDS011;8029;52.202;7.308;2023-05-23T02:54:20;2.95;;;2.67;;
15858;SDS011;8029;52.202;7.308;2023-05-23T02:56:46;4.32;;;2.80;;
15858;SDS011;8029;52.202;7.308;2023-05-23T02:59:12;2.70;;;2.45;;
15858;SDS011;8029;52.202;7.308;2023-05-23T03:01:38;3.30;;;2.67;;
15858;SDS011;8029;52.202;7.308;2023-05-23T03:04:04;4.00;;;2.85;;
15858;SDS011;8029;52.202;7.308;2023-05-23T03:06:30;2.97;;;2.75;;
15858;SDS011;8029;52.202;7.308;2023-05-23T03:08:58;3.67;;;3.10;;
15858;SDS011;8029;52.202;7.308;2023-05-23T03:11:24;3.33;;;3.03;;
15858;SDS011;8029;52.202;7.308;2023-05-23T03:13:50;4.80;;;2.90;;
15858;SDS011;8029;52.202;7.308;2023-05-23T03:16:16;5.25;;;2.67;;
15858;SDS011;8029;52.202;7.308;2023-05-23T03:18:44;2.60;;;2.40;;
15858;SDS011;8029;52.202;7.308;2023-05-23T03:21:10;3.25;;;2.95;;
15858;SDS011;8029;52.202;7.308;2023-05-23T03:23:36;5.15;;;3.83;;
15858;SDS011;8029;52.202;7.308;2023-05-23T03:26:02;3.67;;;3.35;;
15858;SDS011;8029;52.202;7.308;2023-05-23T03:28:30;4.03;;;3.28;;
15858;SDS011;8029;52.202;7.308;2023-05-23T03:30:56;3.78;;;3.45;;
15858;SDS011;8029;52.202;7.308;2023-05-23T03:33:23;6.15;;;4.05;;
15858;SDS011;8029;52.202;7.308;2023-05-23T03:35:49;5.72;;;3.63;;
15858;SDS011;8029;52.202;7.308;2023-05-23T03:38:15;4.70;;;3.30;;
15858;SDS011;8029;52.202;7.308;2023-05-23T03:40:41;4.95;;;3.70;;
15858;SDS011;8029;52.202;7.308;2023-05-23T03:43:07;3.42;;;3.05;;
15858;SDS011;8029;52.202;7.308;2023-05-23T03:45:33;5.10;;;4.10;;
15858;SDS011;8029;52.202;7.308;2023-05-23T03:48:00;4.32;;;3.88;;
15858;SDS011;8029;52.202;7.308;2023-05-23T03:50:26;4.20;;;3.28;;
15858;SDS011;8029;52.202;7.308;2023-05-23T03:52:55;3.88;;;3.53;;
15858;SDS011;8029;52.202;7.308;2023-05-23T03:55:21;4.50;;;4.03;;
15858;SDS011;8029;52.202;7.308;2023-05-23T03:57:48;4.45;;;3.90;;
15858;SDS011;8029;52.202;7.308;2023-05-23T04:00:15;4.05;;;2.83;;
15858;SDS011;8029;52.202;7.308;2023-05-23T04:02:41;4.05;;;3.67;;
15858;SDS011;8029;52.202;7.308;2023-05-23T04:05:07;5.15;;;3.88;;
15858;SDS011;8029;52.202;7.308;2023-05-23T04:07:34;5.07;;;3.58;;
15858;SDS011;8029;52.202;7.308;2023-05-23T04:10:02;4.95;;;3.83;;
15858;SDS011;8029;52.202;7.308;2023-05-23T04:12:28;4.90;;;3.67;;
15858;SDS011;8029;52.202;7.308;2023-05-23T04:14:55;3.88;;;3.05;;
15858;SDS011;8029;52.202;7.308;2023-05-23T04:17:22;4.45;;;3.70;;
15858;SDS011;8029;52.202;7.308;2023-05-23T04:19:48;9.15;;;5.15;;
15858;SDS011;8029;52.202;7.308;2023-05-23T04:22:16;6.47;;;3.95;;
15858;SDS011;8029;52.202;7.308;2023-05-23T04:24:42;4.05;;;3.28;;
15858;SDS011;8029;52.202;7.308;2023-05-23T04:27:08;5.38;;;4.30;;
15858;SDS011;8029;52.202;7.308;2023-05-23T04:29:34;4.88;;;3.67;;
15858;SDS011;8029;52.202;7.308;2023-05-23T04:32:01;4.13;;;3.70;;
15858;SDS011;8029;52.202;7.308;2023-05-23T04:34:27;5.32;;;4.22;;
15858;SDS011;8029;52.202;7.308;2023-05-23T04:36:57;6.68;;;4.40;;
15858;SDS011;8029;52.202;7.308;2023-05-23T04:39:28;4.32;;;3.80;;
15858;SDS011;8029;52.202;7.308;2023-05-23T04:41:55;4.50;;;4.07;;
15858;SDS011;8029;52.202;7.308;2023-05-23T04:44:24;4.97;;;3.22;;
15858;SDS011;8029;52.202;7.308;2023-05-23T04:46:54;3.47;;;3.15;;
15858;SDS011;8029;52.202;7.308;2023-05-23T04:49:21;6.65;;;2.65;;
15858;SDS011;8029;52.202;7.308;2023-05-23T04:51:47;4.72;;;3.58;;
15858;SDS011;8029;52.202;7.308;2023-05-23T04:54:13;6.95;;;4.45;;
15858;SDS011;8029;52.202;7.308;2023-05-23T04:56:39;4.25;;;3.22;;
15858;SDS011;8029;52.202;7.308;2023-05-23T04:59:05;2.80;;;2.55;;
15858;SDS011;8029;52.202;7.308;2023-05-23T05:01:35;2.95;;;2.70;;
15858;SDS011;8029;52.202;7.308;2023-05-23T05:04:04;2.80;;;2.55;;
15858;SDS011;8029;52.202;7.308;2023-05-23T05:06:31;5.30;;;2.30;;
15858;SDS011;8029;52.202;7.308;2023-05-23T05:08:57;3.33;;;2.38;;
15858;SDS011;8029;52.202;7.308;2023-05-23T05:11:23;2.67;;;2.25;;
15858;SDS011;8029;52.202;7.308;2023-05-23T05:13:50;2.50;;;2.28;;
15858;SDS011;8029;52.202;7.308;2023-05-23T05:16:16;4.05;;;2.15;;
15858;SDS011;8029;52.202;7.308;2023-05-23T05:18:42;2.17;;;2.00;;
15858;SDS011;8029;52.202;7.308;2023-05-23T05:21:08;4.93;;;3.08;;
15858;SDS011;8029;52.202;7.308;2023-05-23T05:23:34;2.88;;;2.15;;
15858;SDS011;8029;52.202;7.308;2023-05-23T05:26:00;2.28;;;2.08;;
15858;SDS011;8029;52.202;7.308;2023-05-23T05:28:27;2.00;;;1.90;;
15858;SDS011;8029;52.202;7.308;2023-05-23T05:30:53;4.45;;;2.38;;
15858;SDS011;8029;52.202;7.308;2023-05-23T05:33:19;3.10;;;2.70;;
15858;SDS011;8029;52.202;7.308;2023-05-23T05:35:49;2.75;;;2.33;;
15858;SDS011;8029;52.202;7.308;2023-05-23T05:38:17;3.90;;;2.80;;
15858;SDS011;8029;52.202;7.308;2023-05-23T05:40:43;4.53;;;2.55;;
15858;SDS011;8029;52.202;7.308;2023-05-23T05:43:09;2.80;;;2.55;;
15858;SDS011;8029;52.202;7.308;2023-05-23T05:45:35;5.55;;;2.80;;
15858;SDS011;8029;52.202;7.308;2023-05-23T05:48:01;3.90;;;2.50;;
15858;SDS011;8029;52.202;7.308;2023-05-23T05:50:27;3.08;;;2.30;;
15858;SDS011;8029;52.202;7.308;2023-05-23T05:52:53;2.90;;;2.42;;
15858;SDS011;8029;52.202;7.308;2023-05-23T05:55:19;2.65;;;2.42;;
15858;SDS011;8029;52.202;7.308;2023-05-23T05:57:45;4.32;;;2.92;;
15858;SDS011;8029;52.202;7.308;2023-05-23T06:00:12;4.03;;;2.13;;
15858;SDS011;8029;52.202;7.308;2023-05-23T06:02:39;2.72;;;2.22;;
15858;SDS011;8029;52.202;7.308;2023-05-23T06:05:11;2.92;;;2.35;;
15858;SDS011;8029;52.202;7.308;2023-05-23T06:07:37;2.78;;;2.30;;
15858;SDS011;8029;52.202;7.308;2023-05-23T06:10:04;2.80;;;2.13;;
15858;SDS011;8029;52.202;7.308;2023-05-23T06:12:30;2.50;;;1.95;;
15858;SDS011;8029;52.202;7.308;2023-05-23T06:14:56;2.15;;;1.92;;
15858;SDS011;8029;52.202;7.308;2023-05-23T06:17:22;1.67;;;1.58;;
15858;SDS011;8029;52.202;7.308;2023-05-23T06:19:48;2.08;;;1.92;;
15858;SDS011;8029;52.202;7.308;2023-05-23T06:22:14;16.98;;;2.17;;
15858;SDS011;8029;52.202;7.308;2023-05-23T06:24:40;2.63;;;2.28;;
15858;SDS011;8029;52.202;7.308;2023-05-23T06:27:06;1.63;;;1.52;;
15858;SDS011;8029;52.202;7.308;2023-05-23T06:29:32;4.45;;;1.90;;
15858;SDS011;8029;52.202;7.308;2023-05-23T06:32:00;2.80;;;1.88;;
15858;SDS011;8029;52.202;7.308;2023-05-23T06:34:26;2.80;;;2.00;;
15858;SDS011;8029;52.202;7.308;2023-05-23T06:36:53;2.03;;;1.77;;
15858;SDS011;8029;52.202;7.308;2023-05-23T06:39:19;1.92;;;1.52;;
15858;SDS011;8029;52.202;7.308;2023-05-23T06:41:45;2.17;;;1.92;;
15858;SDS011;8029;52.202;7.308;2023-05-23T06:44:11;2.45;;;2.25;;
15858;SDS011;8029;52.202;7.308;2023-05-23T06:46:37;2.38;;;2.17;;
15858;SDS011;8029;52.202;7.308;2023-05-23T06:49:03;1.45;;;1.35;;
15858;SDS011;8029;52.202;7.308;2023-05-23T06:51:29;2.83;;;2.10;;
15858;SDS011;8029;52.202;7.308;2023-05-23T06:53:55;2.25;;;2.00;;
15858;SDS011;8029;52.202;7.308;2023-05-23T06:56:22;2.97;;;1.60;;
15858;SDS011;8029;52.202;7.308;2023-05-23T06:58:48;1.90;;;1.80;;
15858;SDS011;8029;52.202;7.308;2023-05-23T07:01:14;1.60;;;1.50;;
15858;SDS011;8029;52.202;7.308;2023-05-23T07:03:40;12.95;;;2.28;;
15858;SDS011;8029;52.202;7.308;2023-05-23T07:06:08;1.85;;;1.45;;
15858;SDS011;8029;52.202;7.308;2023-05-23T07:08:34;2.47;;;1.63;;
15858;SDS011;8029;52.202;7.308;2023-05-23T07:11:00;1.88;;;1.50;;
15858;SDS011;8029;52.202;7.308;2023-05-23T07:13:26;1.88;;;1.77;;
15858;SDS011;8029;52.202;7.308;2023-05-23T07:15:52;2.30;;;2.10;;
15858;SDS011;8029;52.202;7.308;2023-05-23T07:18:18;2.88;;;2.25;;
15858;SDS011;8029;52.202;7.308;2023-05-23T07:20:44;1.85;;;1.75;;
15858;SDS011;8029;52.202;7.308;2023-05-23T07:23:10;2.97;;;1.98;;
15858;SDS011;8029;52.202;7.308;2023-05-23T07:25:36;2.05;;;1.77;;
15858;SDS011;8029;52.202;7.308;2023-05-23T07:28:04;3.65;;;2.15;;
15858;SDS011;8029;52.202;7.308;2023-05-23T07:30:30;1.65;;;1.55;;
15858;SDS011;8029;52.202;7.308;2023-05-23T07:32:56;2.35;;;1.95;;
15858;SDS011;8029;52.202;7.308;2023-05-23T07:35:22;4.10;;;2.55;;
15858;SDS011;8029;52.202;7.308;2023-05-23T07:37:53;4.43;;;2.15;;
15858;SDS011;8029;52.202;7.308;2023-05-23T07:40:20;5.95;;;2.15;;
15858;SDS011;8029;52.202;7.308;2023-05-23T07:42:46;2.35;;;1.80;;
15858;SDS011;8029;52.202;7.308;2023-05-23T07:45:12;3.95;;;2.30;;
15858;SDS011;8029;52.202;7.308;2023-05-23T07:47:38;3.72;;;1.80;;
15858;SDS011;8029;52.202;7.308;2023-05-23T07:50:05;5.00;;;2.30;;
15858;SDS011;8029;52.202;7.308;2023-05-23T07:52:31;9.85;;;2.95;;
15858;SDS011;8029;52.202;7.308;2023-05-23T07:54:58;8.50;;;2.60;;
15858;SDS011;8029;52.202;7.308;2023-05-23T07:57:24;2.10;;;1.75;;
15858;SDS011;8029;52.202;7.308;2023-05-23T07:59:51;2.05;;;1.83;;
15858;SDS011;8029;52.202;7.308;2023-05-23T08:02:17;2.28;;;2.03;;
15858;SDS011;8029;52.202;7.308;2023-05-23T08:04:43;3.15;;;2.47;;
15858;SDS011;8029;52.202;7.308;2023-05-23T08:07:10;2.53;;;1.88;;
15858;SDS011;8029;52.202;7.308;2023-05-23T08:09:37;3.80;;;2.42;;
15858;SDS011;8029;52.202;7.308;2023-05-23T08:12:04;5.90;;;2.53;;
15858;SDS011;8029;52.202;7.308;2023-05-23T08:14:30;8.73;;;2.05;;
15858;SDS011;8029;52.202;7.308;2023-05-23T08:16:56;3.55;;;2.50;;
15858;SDS011;8029;52.202;7.308;2023-05-23T08:19:22;5.15;;;2.70;;
15858;SDS011;8029;52.202;7.308;2023-05-23T08:21:48;3.70;;;2.65;;
15858;SDS011;8029;52.202;7.308;2023-05-23T08:24:15;3.08;;;2.25;;
15858;SDS011;8029;52.202;7.308;2023-05-23T08:26:40;4.32;;;2.78;;
15858;SDS011;8029;52.202;7.308;2023-05-23T08:29:07;3.03;;;2.72;;
15858;SDS011;8029;52.202;7.308;2023-05-23T08:31:34;2.00;;;1.55;;
15858;SDS011;8029;52.202;7.308;2023-05-23T08:34:00;2.85;;;2.03;;
15858;SDS011;8029;52.202;7.308;2023-05-23T08:36:26;2.53;;;2.15;;
15858;SDS011;8029;52.202;7.308;2023-05-23T08:38:52;3.70;;;2.00;;
15858;SDS011;8029;52.202;7.308;2023-05-23T08:41:19;6.82;;;3.03;;
15858;SDS011;8029;52.202;7.308;2023-05-23T08:43:45;8.70;;;4.43;;
15858;SDS011;8029;52.202;7.308;2023-05-23T08:46:11;1.98;;;1.58;;
15858;SDS011;8029;52.202;7.308;2023-05-23T08:48:38;4.93;;;2.80;;
15858;SDS011;8029;52.202;7.308;2023-05-23T08:51:04;3.17;;;1.77;;
15858;SDS011;8029;52.202;7.308;2023-05-23T08:53:31;3.20;;;1.90;;
15858;SDS011;8029;52.202;7.308;2023-05-23T08:55:58;4.53;;;2.47;;
15858;SDS011;8029;52.202;7.308;2023-05-23T08:58:29;2.85;;;1.90;;
15858;SDS011;8029;52.202;7.308;2023-05-23T09:00:56;4.68;;;2.13;;
15858;SDS011;8029;52.202;7.308;2023-05-23T09:03:23;3.38;;;1.90;;
15858;SDS011;8029;52.202;7.308;2023-05-23T09:05:50;2.65;;;1.73;;
15858;SDS011;8029;52.202;7.308;2023-05-23T09:08:18;3.17;;;1.63;;
15858;SDS011;8029;52.202;7.308;2023-05-23T09:10:44;4.18;;;1.83;;
15858;SDS011;8029;52.202;7.308;2023-05-23T09:13:10;8.75;;;2.53;;
15858;SDS011;8029;52.202;7.308;2023-05-23T09:15:36;3.25;;;2.08;;
15858;SDS011;8029;52.202;7.308;2023-05-23T09:18:02;1.30;;;1.20;;
15858;SDS011;8029;52.202;7.308;2023-05-23T09:20:28;3.33;;;2.63;;
15858;SDS011;8029;52.202;7.308;2023-05-23T09:22:55;3.50;;;2.25;;
15858;SDS011;8029;52.202;7.308;2023-05-23T09:25:21;4.47;;;2.35;;
15858;SDS011;8029;52.202;7.308;2023-05-23T09:27:47;2.75;;;1.88;;
15858;SDS011;8029;52.202;7.308;2023-05-23T09:30:13;4.32;;;2.13;;
15858;SDS011;8029;52.202;7.308;2023-05-23T09:32:39;8.77;;;2.50;;
15858;SDS011;8029;52.202;7.308;2023-05-23T09:35:07;4.72;;;2.63;;
15858;SDS011;8029;52.202;7.308;2023-05-23T09:37:38;5.07;;;2.42;;
15858;SDS011;8029;52.202;7.308;2023-05-23T09:40:06;2.63;;;1.83;;
15858;SDS011;8029;52.202;7.308;2023-05-23T09:42:34;2.33;;;1.80;;
15858;SDS011;8029;52.202;7.308;2023-05-23T09:45:00;5.63;;;2.45;;
15858;SDS011;8029;52.202;7.308;2023-05-23T09:47:26;2.25;;;1.50;;
15858;SDS011;8029;52.202;7.308;2023-05-23T09:49:52;4.05;;;2.40;;
15858;SDS011;8029;52.202;7.308;2023-05-23T09:52:18;4.57;;;1.60;;
15858;SDS011;8029;52.202;7.308;2023-05-23T09:54:45;5.75;;;2.85;;
15858;SDS011;8029;52.202;7.308;2023-05-23T09:57:11;3.15;;;2.10;;
15858;SDS011;8029;52.202;7.308;2023-05-23T09:59:39;2.78;;;2.10;;
15858;SDS011;8029;52.202;7.308;2023-05-23T10:02:06;7.95;;;2.38;;
15858;SDS011;8029;52.202;7.308;2023-05-23T10:04:33;3.42;;;1.92;;
15858;SDS011;8029;52.202;7.308;2023-05-23T10:07:09;2.72;;;2.13;;
15858;SDS011;8029;52.202;7.308;2023-05-23T10:09:40;6.35;;;2.55;;
15858;SDS011;8029;52.202;7.308;2023-05-23T10:12:50;3.30;;;1.88;;
15858;SDS011;8029;52.202;7.308;2023-05-23T10:15:00;4.38;;;2.45;;
15858;SDS011;8029;52.202;7.308;2023-05-23T10:20:13;3.03;;;2.25;;
15858;SDS011;8029;52.202;7.308;2023-05-23T10:22:41;5.30;;;2.85;;
15858;SDS011;8029;52.202;7.308;2023-05-23T10:25:07;12.80;;;2.47;;
15858;SDS011;8029;52.202;7.308;2023-05-23T10:27:34;3.97;;;2.20;;
15858;SDS011;8029;52.202;7.308;2023-05-23T10:30:01;4.40;;;2.20;;
15858;SDS011;8029;52.202;7.308;2023-05-23T10:32:27;8.80;;;3.38;;
15858;SDS011;8029;52.202;7.308;2023-05-23T10:35:06;3.17;;;1.52;;
15858;SDS011;8029;52.202;7.308;2023-05-23T10:37:43;2.38;;;1.70;;
15858;SDS011;8029;52.202;7.308;2023-05-23T10:40:30;3.22;;;1.90;;
15858;SDS011;8029;52.202;7.308;2023-05-23T10:43:01;3.78;;;2.30;;
15858;SDS011;8029;52.202;7.308;2023-05-23T10:45:30;5.38;;;2.33;;
15858;SDS011;8029;52.202;7.308;2023-05-23T10:48:06;3.40;;;2.35;;
15858;SDS011;8029;52.202;7.308;2023-05-23T10:50:41;2.67;;;1.65;;
15858;SDS011;8029;52.202;7.308;2023-05-23T10:53:08;5.97;;;2.15;;
15858;SDS011;8029;52.202;7.308;2023-05-23T10:55:35;3.13;;;1.85;;
15858;SDS011;8029;52.202;7.308;2023-05-23T10:58:35;2.15;;;1.48;;
15858;SDS011;8029;52.202;7.308;2023-05-23T11:00:55;6.47;;;2.60;;
15858;SDS011;8029;52.202;7.308;2023-05-23T11:03:48;5.10;;;2.22;;
15858;SDS011;8029;52.202;7.308;2023-05-23T11:09:06;3.63;;;2.20;;
15858;SDS011;8029;52.202;7.308;2023-05-23T11:14:19;4.22;;;2.33;;
15858;SDS011;8029;52.202;7.308;2023-05-23T11:16:46;6.75;;;2.95;;
15858;SDS011;8029;52.202;7.308;2023-05-23T11:21:49;1.83;;;1.58;;
15858;SDS011;8029;52.202;7.308;2023-05-23T11:24:16;3.15;;;1.80;;
15858;SDS011;8029;52.202;7.308;2023-05-23T11:26:58;3.17;;;2.47;;
15858;SDS011;8029;52.202;7.308;2023-05-23T11:29:28;4.70;;;2.30;;
15858;SDS011;8029;52.202;7.308;2023-05-23T11:31:57;10.63;;;2.25;;
15858;SDS011;8029;52.202;7.308;2023-05-23T11:34:26;3.15;;;2.00;;
15858;SDS011;8029;52.202;7.308;2023-05-23T11:36:53;3.00;;;1.88;;
15858;SDS011;8029;52.202;7.308;2023-05-23T11:39:19;4.43;;;2.22;;
15858;SDS011;8029;52.202;7.308;2023-05-23T11:41:49;3.58;;;2.05;;
15858;SDS011;8029;52.202;7.308;2023-05-23T11:44:15;2.65;;;1.83;;
15858;SDS011;8029;52.202;7.308;2023-05-23T11:46:48;2.38;;;1.83;;
15858;SDS011;8029;52.202;7.308;2023-05-23T11:49:23;11.93;;;2.08;;
15858;SDS011;8029;52.202;7.308;2023-05-23T11:51:49;7.65;;;3.15;;
15858;SDS011;8029;52.202;7.308;2023-05-23T11:54:15;2.53;;;1.70;;
15858;SDS011;8029;52.202;7.308;2023-05-23T11:56:41;10.60;;;2.65;;
15858;SDS011;8029;52.202;7.308;2023-05-23T11:59:07;2.65;;;1.77;;
15858;SDS011;8029;52.202;7.308;2023-05-23T12:01:36;3.38;;;2.58;;
15858;SDS011;8029;52.202;7.308;2023-05-23T12:04:08;2.95;;;1.98;;
15858;SDS011;8029;52.202;7.308;2023-05-23T12:06:36;2.17;;;1.60;;
15858;SDS011;8029;52.202;7.308;2023-05-23T12:09:03;2.25;;;1.77;;
15858;SDS011;8029;52.202;7.308;2023-05-23T12:11:32;3.95;;;1.95;;
15858;SDS011;8029;52.202;7.308;2023-05-23T12:13:58;3.15;;;2.00;;
15858;SDS011;8029;52.202;7.308;2023-05-23T12:16:27;2.05;;;1.70;;
15858;SDS011;8029;52.202;7.308;2023-05-23T12:18:53;1.58;;;1.42;;
15858;SDS011;8029;52.202;7.308;2023-05-23T12:21:23;5.15;;;2.35;;
15858;SDS011;8029;52.202;7.308;2023-05-23T12:23:50;1.88;;;1.55;;
15858;SDS011;8029;52.202;7.308;2023-05-23T12:26:16;1.80;;;1.70;;
15858;SDS011;8029;52.202;7.308;2023-05-23T12:28:42;5.10;;;2.58;;
15858;SDS011;8029;52.202;7.308;2023-05-23T12:31:15;5.28;;;2.40;;
15858;SDS011;8029;52.202;7.308;2023-05-23T12:33:43;1.58;;;1.35;;
15858;SDS011;8029;52.202;7.308;2023-05-23T12:36:10;1.70;;;1.50;;
15858;SDS011;8029;52.202;7.308;2023-05-23T12:38:36;16.85;;;2.05;;
15858;SDS011;8029;52.202;7.308;2023-05-23T12:41:16;2.08;;;1.40;;
15858;SDS011;8029;52.202;7.308;2023-05-23T12:43:53;3.50;;;2.35;;
15858;SDS011;8029;52.202;7.308;2023-05-23T12:46:20;20.95;;;1.95;;
15858;SDS011;8029;52.202;7.308;2023-05-23T12:48:46;2.22;;;1.80;;
15858;SDS011;8029;52.202;7.308;2023-05-23T12:51:15;1.35;;;1.13;;
15858;SDS011;8029;52.202;7.308;2023-05-23T12:53:41;2.25;;;1.63;;
15858;SDS011;8029;52.202;7.308;2023-05-23T12:56:07;2.20;;;1.60;;
15858;SDS011;8029;52.202;7.308;2023-05-23T12:58:33;1.60;;;1.20;;
15858;SDS011;8029;52.202;7.308;2023-05-23T13:00:59;1.90;;;1.58;;
15858;SDS011;8029;52.202;7.308;2023-05-23T13:03:26;2.67;;;1.40;;
15858;SDS011;8029;52.202;7.308;2023-05-23T13:05:55;2.83;;;1.70;;
15858;SDS011;8029;52.202;7.308;2023-05-23T13:08:21;1.67;;;1.25;;
15858;SDS011;8029;52.202;7.308;2023-05-23T13:10:47;1.40;;;1.30;;
15858;SDS011;8029;52.202;7.308;2023-05-23T13:13:13;2.58;;;1.95;;
15858;SDS011;8029;52.202;7.308;2023-05-23T13:15:39;1.85;;;1.35;;
15858;SDS011;8029;52.202;7.308;2023-05-23T13:18:06;2.05;;;1.70;;
15858;SDS011;8029;52.202;7.308;2023-05-23T13:20:32;6.20;;;2.10;;
15858;SDS011;8029;52.202;7.308;2023-05-23T13:22:58;10.60;;;1.67;;
15858;SDS011;8029;52.202;7.308;2023-05-23T13:25:27;3.25;;;1.70;;
15858;SDS011;8029;52.202;7.308;2023-05-23T13:27:53;1.40;;;1.30;;
15858;SDS011;8029;52.202;7.308;2023-05-23T13:30:20;1.13;;;1.05;;
15858;SDS011;8029;52.202;7.308;2023-05-23T13:32:46;0.98;;;0.98;;
15858;SDS011;8029;52.202;7.308;2023-05-23T13:35:12;1.70;;;1.45;;
15858;SDS011;8029;52.202;7.308;2023-05-23T13:37:39;3.65;;;2.15;;
15858;SDS011;8029;52.202;7.308;2023-05-23T13:40:05;2.22;;;1.73;;
15858;SDS011;8029;52.202;7.308;2023-05-23T13:42:31;2.60;;;1.40;;
15858;SDS011;8029;52.202;7.308;2023-05-23T13:44:57;2.97;;;1.20;;
15858;SDS011;8029;52.202;7.308;2023-05-23T13:47:23;3.88;;;1.70;;
15858;SDS011;8029;52.202;7.308;2023-05-23T13:49:49;1.63;;;1.30;;
15858;SDS011;8029;52.202;7.308;2023-05-23T13:52:15;1.33;;;1.23;;
15858;SDS011;8029;52.202;7.308;2023-05-23T13:54:41;4.30;;;1.58;;
15858;SDS011;8029;52.202;7.308;2023-05-23T13:57:07;2.95;;;2.22;;
15858;SDS011;8029;52.202;7.308;2023-05-23T13:59:33;1.70;;;1.35;;
15858;SDS011;8029;52.202;7.308;2023-05-23T14:01:59;1.55;;;1.15;;
15858;SDS011;8029;52.202;7.308;2023-05-23T14:04:26;2.28;;;1.42;;
15858;SDS011;8029;52.202;7.308;2023-05-23T14:06:52;2.58;;;1.70;;
15858;SDS011;8029;52.202;7.308;2023-05-23T14:09:18;4.28;;;0.98;;
15858;SDS011;8029;52.202;7.308;2023-05-23T14:11:44;1.30;;;1.20;;
15858;SDS011;8029;52.202;7.308;2023-05-23T14:14:10;5.18;;;1.63;;
15858;SDS011;8029;52.202;7.308;2023-05-23T14:16:36;3.67;;;1.90;;
15858;SDS011;8029;52.202;7.308;2023-05-23T14:19:02;2.22;;;1.17;;
15858;SDS011;8029;52.202;7.308;2023-05-23T14:21:28;4.00;;;2.72;;
15858;SDS011;8029;52.202;7.308;2023-05-23T14:23:55;5.50;;;1.67;;
15858;SDS011;8029;52.202;7.308;2023-05-23T14:26:21;2.92;;;1.88;;
15858;SDS011;8029;52.202;7.308;2023-05-23T14:28:47;1.38;;;1.20;;
15858;SDS011;8029;52.202;7.308;2023-05-23T14:31:13;3.17;;;2.45;;
15858;SDS011;8029;52.202;7.308;2023-05-23T14:33:39;5.05;;;1.73;;
15858;SDS011;8029;52.202;7.308;2023-05-23T14:36:05;1.33;;;1.23;;
15858;SDS011;8029;52.202;7.308;2023-05-23T14:38:32;1.33;;;1.25;;
15858;SDS011;8029;52.202;7.308;2023-05-23T14:40:58;2.15;;;1.35;;
15858;SDS011;8029;52.202;7.308;2023-05-23T14:43:24;1.88;;;1.67;;
15858;SDS011;8029;52.202;7.308;2023-05-23T14:45:50;1.00;;;0.90;;
15858;SDS011;8029;52.202;7.308;2023-05-23T14:48:16;1.20;;;1.20;;
15858;SDS011;8029;52.202;7.308;2023-05-23T14:50:42;3.22;;;2.05;;
15858;SDS011;8029;52.202;7.308;2023-05-23T14:53:08;1.38;;;1.27;;
15858;SDS011;8029;52.202;7.308;2023-05-23T14:55:34;2.53;;;1.35;;
15858;SDS011;8029;52.202;7.308;2023-05-23T14:58:00;1.65;;;1.38;;
15858;SDS011;8029;52.202;7.308;2023-05-23T15:00:27;2.03;;;1.63;;
15858;SDS011;8029;52.202;7.308;2023-05-23T15:02:53;2.53;;;1.33;;
15858;SDS011;8029;52.202;7.308;2023-05-23T15:05:20;5.22;;;1.55;;
15858;SDS011;8029;52.202;7.308;2023-05-23T15:07:46;3.80;;;1.85;;
15858;SDS011;8029;52.202;7.308;2023-05-23T15:10:12;2.00;;;1.60;;
15858;SDS011;8029;52.202;7.308;2023-05-23T15:12:38;1.83;;;1.52;;
15858;SDS011;8029;52.202;7.308;2023-05-23T15:15:04;1.50;;;1.40;;
15858;SDS011;8029;52.202;7.308;2023-05-23T15:17:33;1.20;;;1.05;;